sensor_id;sensor_type;location;lat;lon;timestamp;pressure;altitude;pressure_sealevel;temperature;humidity
4598;BME280;62772;48.646;8.906;2023-03-01T00:04:43;96920.56;;;-4.45;100.00
4598;BME280;62772;48.646;8.906;2023-03-01T00:09:43;96926.16;;;-3.88;100.00
4598;BME280;62772;48.646;8.906;2023-03-01T00:14:46;96922.19;;;-4.31;100.00
4598;BME280;62772;48.646;8.906;2023-03-01T00:19:46;96918.72;;;-3.71;100.00
4598;BME280;62772;48.646;8.906;2023-03-01T00:24:46;96930.59;;;-3.82;100.00
4598;BME280;62772;48.646;8.906;2023-03-01T00:29:47;96930.22;;;-3.92;100.00
4598;BME280;62772;48.646;8.906;2023-03-01T00:34:47;96917.66;;;-4.90;100.00
4598;BME280;62772;48.646;8.906;2023-03-01T00:39:54;96912.13;;;-4.47;100.00
4598;BME280;62772;48.646;8.906;2023-03-01T00:44:55;96912.34;;;-3.95;100.00
4598;BME280;62772;48.646;8.906;2023-03-01T00:49:55;96910.34;;;-4.20;100.00
4598;BME280;62772;48.646;8.906;2023-03-01T00:54:56;96917.97;;;-3.98;100.00
4598;BME280;62772;48.646;8.906;2023-03-01T00:59:58;96905.31;;;-4.02;100.00
4598;BME280;62772;48.646;8.906;2023-03-01T01:04:59;96905.31;;;-4.02;100.00
4598;BME280;62772;48.646;8.906;2023-03-01T01:10:00;96895.69;;;-4.41;100.00
4598;BME280;62772;48.646;8.906;2023-03-01T01:15:01;96891.06;;;-4.66;100.00
4598;BME280;62772;48.646;8.906;2023-03-01T01:20:01;96886.66;;;-4.52;100.00
4598;BME280;62772;48.646;8.906;2023-03-01T01:25:02;96893.09;;;-3.94;100.00
4598;BME280;62772;48.646;8.906;2023-03-01T01:30:03;96882.88;;;-4.29;100.00
4598;BME280;62772;48.646;8.906;2023-03-01T01:35:04;96878.44;;;-4.15;100.00
4598;BME280;62772;48.646;8.906;2023-03-01T01:40:05;96872.41;;;-3.96;100.00
4598;BME280;62772;48.646;8.906;2023-03-01T01:45:32;96871.22;;;-4.33;100.00
4598;BME280;62772;48.646;8.906;2023-03-01T01:50:33;96873.00;;;-4.07;100.00
4598;BME280;62772;48.646;8.906;2023-03-01T01:55:47;96872.81;;;-4.12;100.00
4598;BME280;62772;48.646;8.906;2023-03-01T02:00:49;96865.38;;;-4.02;100.00
4598;BME280;62772;48.646;8.906;2023-03-01T02:06:01;96871.59;;;-4.03;100.00
4598;BME280;62772;48.646;8.906;2023-03-01T02:11:05;96851.13;;;-3.93;100.00
4598;BME280;62772;48.646;8.906;2023-03-01T02:16:10;96856.31;;;-3.86;100.00
4598;BME280;62772;48.646;8.906;2023-03-01T02:26:40;96851.53;;;-3.96;100.00
4598;BME280;62772;48.646;8.906;2023-03-01T02:31:42;96844.13;;;-4.19;100.00
4598;BME280;62772;48.646;8.906;2023-03-01T02:36:58;96834.44;;;-3.78;100.00
4598;BME280;62772;48.646;8.906;2023-03-01T02:42:01;96819.75;;;-3.73;100.00
4598;BME280;62772;48.646;8.906;2023-03-01T02:47:04;96817.41;;;-3.94;100.00
4598;BME280;62772;48.646;8.906;2023-03-01T02:52:28;96816.91;;;-3.71;100.00
4598;BME280;62772;48.646;8.906;2023-03-01T02:57:31;96808.97;;;-3.96;100.00
4598;BME280;62772;48.646;8.906;2023-03-01T03:02:34;96800.66;;;-3.67;100.00
4598;BME280;62772;48.646;8.906;2023-03-01T03:07:51;96797.81;;;-3.65;100.00
4598;BME280;62772;48.646;8.906;2023-03-01T03:13:03;96793.50;;;-3.85;100.00
4598;BME280;62772;48.646;8.906;2023-03-01T03:18:06;96782.63;;;-3.81;100.00
4598;BME280;62772;48.646;8.906;2023-03-01T03:23:07;96776.16;;;-3.72;100.00
4598;BME280;62772;48.646;8.906;2023-03-01T03:28:08;96773.94;;;-3.69;100.00
4598;BME280;62772;48.646;8.906;2023-03-01T03:33:11;96784.56;;;-3.63;100.00
4598;BME280;62772;48.646;8.906;2023-03-01T03:38:13;96783.91;;;-3.52;100.00
4598;BME280;62772;48.646;8.906;2023-03-01T03:43:19;96786.09;;;-3.49;100.00
4598;BME280;62772;48.646;8.906;2023-03-01T03:48:20;96778.44;;;-3.44;100.00
4598;BME280;62772;48.646;8.906;2023-03-01T03:53:22;96777.06;;;-3.47;100.00
4598;BME280;62772;48.646;8.906;2023-03-01T03:58:24;96780.13;;;-3.63;100.00
4598;BME280;62772;48.646;8.906;2023-03-01T04:03:26;96772.25;;;-3.50;100.00
4598;BME280;62772;48.646;8.906;2023-03-01T04:08:29;96770.41;;;-3.42;100.00
4598;BME280;62772;48.646;8.906;2023-03-01T04:13:30;96760.72;;;-3.35;100.00
4598;BME280;62772;48.646;8.906;2023-03-01T04:18:30;96761.72;;;-3.36;100.00
4598;BME280;62772;48.646;8.906;2023-03-01T04:23:31;96755.88;;;-3.32;100.00
4598;BME280;62772;48.646;8.906;2023-03-01T04:28:34;96756.97;;;-3.46;100.00
4598;BME280;62772;48.646;8.906;2023-03-01T04:33:34;96756.88;;;-3.33;100.00
4598;BME280;62772;48.646;8.906;2023-03-01T04:38:36;96748.59;;;-3.23;100.00
4598;BME280;62772;48.646;8.906;2023-03-01T04:43:40;96757.19;;;-3.16;100.00
4598;BME280;62772;48.646;8.906;2023-03-01T04:48:42;96756.47;;;-3.30;100.00
4598;BME280;62772;48.646;8.906;2023-03-01T04:53:43;96747.03;;;-3.31;100.00
4598;BME280;62772;48.646;8.906;2023-03-01T04:58:45;96746.44;;;-3.33;100.00
4598;BME280;62772;48.646;8.906;2023-03-01T05:03:51;96749.38;;;-3.54;100.00
4598;BME280;62772;48.646;8.906;2023-03-01T05:08:51;96747.94;;;-3.43;100.00
4598;BME280;62772;48.646;8.906;2023-03-01T05:13:52;96749.25;;;-3.34;100.00
4598;BME280;62772;48.646;8.906;2023-03-01T05:18:55;96735.50;;;-3.16;100.00
4598;BME280;62772;48.646;8.906;2023-03-01T05:23:55;96732.78;;;-3.35;100.00
4598;BME280;62772;48.646;8.906;2023-03-01T05:28:56;96740.41;;;-3.33;100.00
4598;BME280;62772;48.646;8.906;2023-03-01T05:33:59;96740.03;;;-3.37;100.00
4598;BME280;62772;48.646;8.906;2023-03-01T05:38:59;96750.97;;;-3.47;100.00
4598;BME280;62772;48.646;8.906;2023-03-01T05:44:00;96745.47;;;-3.38;100.00
4598;BME280;62772;48.646;8.906;2023-03-01T05:49:00;96742.09;;;-3.46;100.00
4598;BME280;62772;48.646;8.906;2023-03-01T05:54:01;96737.75;;;-3.26;100.00
4598;BME280;62772;48.646;8.906;2023-03-01T05:59:02;96740.25;;;-3.38;100.00
4598;BME280;62772;48.646;8.906;2023-03-01T06:04:04;96730.34;;;-3.30;100.00
4598;BME280;62772;48.646;8.906;2023-03-01T06:09:06;96734.19;;;-3.00;100.00
4598;BME280;62772;48.646;8.906;2023-03-01T06:14:07;96729.44;;;-3.10;100.00
4598;BME280;62772;48.646;8.906;2023-03-01T06:19:08;96728.84;;;-2.87;100.00
4598;BME280;62772;48.646;8.906;2023-03-01T06:24:08;96727.91;;;-2.74;100.00
4598;BME280;62772;48.646;8.906;2023-03-01T06:29:09;96720.63;;;-2.90;100.00
4598;BME280;62772;48.646;8.906;2023-03-01T06:34:09;96719.38;;;-2.88;100.00
4598;BME280;62772;48.646;8.906;2023-03-01T06:39:13;96720.91;;;-2.99;100.00
4598;BME280;62772;48.646;8.906;2023-03-01T06:44:14;96722.00;;;-2.88;100.00
4598;BME280;62772;48.646;8.906;2023-03-01T06:49:14;96718.56;;;-2.63;100.00
4598;BME280;62772;48.646;8.906;2023-03-01T06:54:16;96722.47;;;-2.98;100.00
4598;BME280;62772;48.646;8.906;2023-03-01T06:59:18;96718.38;;;-2.87;100.00
4598;BME280;62772;48.646;8.906;2023-03-01T07:04:18;96715.13;;;-2.82;100.00
4598;BME280;62772;48.646;8.906;2023-03-01T07:09:19;96715.06;;;-3.01;100.00
4598;BME280;62772;48.646;8.906;2023-03-01T07:14:21;96708.75;;;-2.68;100.00
4598;BME280;62772;48.646;8.906;2023-03-01T07:19:24;96706.00;;;-2.73;100.00
4598;BME280;62772;48.646;8.906;2023-03-01T07:24:25;96707.97;;;-2.68;100.00
4598;BME280;62772;48.646;8.906;2023-03-01T07:29:25;96699.97;;;-2.74;100.00
4598;BME280;62772;48.646;8.906;2023-03-01T07:34:26;96693.44;;;-2.64;100.00
4598;BME280;62772;48.646;8.906;2023-03-01T07:39:26;96694.25;;;-2.64;100.00
4598;BME280;62772;48.646;8.906;2023-03-01T07:44:26;96687.69;;;-2.55;100.00
4598;BME280;62772;48.646;8.906;2023-03-01T07:49:28;96678.56;;;-2.45;100.00
4598;BME280;62772;48.646;8.906;2023-03-01T07:54:28;96685.31;;;-2.38;100.00
4598;BME280;62772;48.646;8.906;2023-03-01T07:59:29;96676.25;;;-2.35;100.00
4598;BME280;62772;48.646;8.906;2023-03-01T08:04:29;96666.28;;;-2.26;100.00
4598;BME280;62772;48.646;8.906;2023-03-01T08:09:30;96672.25;;;-2.19;100.00
4598;BME280;62772;48.646;8.906;2023-03-01T08:14:34;96678.56;;;-2.08;100.00
4598;BME280;62772;48.646;8.906;2023-03-01T08:19:34;96673.47;;;-2.03;100.00
4598;BME280;62772;48.646;8.906;2023-03-01T08:24:35;96667.34;;;-1.97;100.00
4598;BME280;62772;48.646;8.906;2023-03-01T08:29:35;96667.63;;;-1.87;100.00
4598;BME280;62772;48.646;8.906;2023-03-01T08:34:36;96672.50;;;-1.90;100.00
4598;BME280;62772;48.646;8.906;2023-03-01T08:39:36;96673.69;;;-1.74;100.00
4598;BME280;62772;48.646;8.906;2023-03-01T08:44:36;96666.31;;;-1.66;100.00
4598;BME280;62772;48.646;8.906;2023-03-01T08:49:37;96662.72;;;-1.53;100.00
4598;BME280;62772;48.646;8.906;2023-03-01T08:54:37;96662.88;;;-1.48;100.00
4598;BME280;62772;48.646;8.906;2023-03-01T08:59:38;96655.59;;;-1.34;100.00
4598;BME280;62772;48.646;8.906;2023-03-01T09:04:39;96648.22;;;-1.13;100.00
4598;BME280;62772;48.646;8.906;2023-03-01T09:09:39;96646.06;;;-0.93;100.00
4598;BME280;62772;48.646;8.906;2023-03-01T09:14:40;96640.47;;;-0.84;100.00
4598;BME280;62772;48.646;8.906;2023-03-01T09:19:41;96627.34;;;-0.61;100.00
4598;BME280;62772;48.646;8.906;2023-03-01T09:24:41;96613.31;;;-0.66;100.00
4598;BME280;62772;48.646;8.906;2023-03-01T09:29:42;96629.03;;;-0.55;100.00
4598;BME280;62772;48.646;8.906;2023-03-01T09:34:43;96623.34;;;-0.51;100.00
4598;BME280;62772;48.646;8.906;2023-03-01T09:40:06;96612.38;;;-0.37;100.00
4598;BME280;62772;48.646;8.906;2023-03-01T09:45:11;96613.56;;;-0.27;100.00
4598;BME280;62772;48.646;8.906;2023-03-01T09:50:19;96616.78;;;-0.25;100.00
4598;BME280;62772;48.646;8.906;2023-03-01T10:00:47;96609.38;;;0.01;100.00
4598;BME280;62772;48.646;8.906;2023-03-01T10:06:23;96601.28;;;0.19;100.00
4598;BME280;62772;48.646;8.906;2023-03-01T10:11:26;96601.06;;;0.21;99.87
4598;BME280;62772;48.646;8.906;2023-03-01T10:21:40;96588.03;;;0.43;96.99
4598;BME280;62772;48.646;8.906;2023-03-01T10:27:29;96586.59;;;0.52;94.43
4598;BME280;62772;48.646;8.906;2023-03-01T10:32:04;96579.78;;;0.51;95.34
4598;BME280;62772;48.646;8.906;2023-03-01T10:37:15;96576.09;;;0.69;94.95
4598;BME280;62772;48.646;8.906;2023-03-01T10:42:46;96571.72;;;0.75;95.17
4598;BME280;62772;48.646;8.906;2023-03-01T10:47:42;96564.50;;;1.04;93.73
4598;BME280;62772;48.646;8.906;2023-03-01T10:52:55;96558.72;;;1.02;90.02
4598;BME280;62772;48.646;8.906;2023-03-01T10:58:18;96551.44;;;0.92;94.20
4598;BME280;62772;48.646;8.906;2023-03-01T11:03:25;96550.44;;;1.15;93.02
4598;BME280;62772;48.646;8.906;2023-03-01T11:08:35;96539.31;;;1.30;91.40
4598;BME280;62772;48.646;8.906;2023-03-01T11:13:51;96540.97;;;1.36;90.75
4598;BME280;62772;48.646;8.906;2023-03-01T11:18:57;96522.59;;;1.41;88.06
4598;BME280;62772;48.646;8.906;2023-03-01T11:24:00;96518.69;;;1.44;87.59
4598;BME280;62772;48.646;8.906;2023-03-01T11:29:04;96502.63;;;1.68;85.95
4598;BME280;62772;48.646;8.906;2023-03-01T11:34:17;96508.81;;;1.78;86.35
4598;BME280;62772;48.646;8.906;2023-03-01T11:39:47;96495.44;;;1.85;85.59
4598;BME280;62772;48.646;8.906;2023-03-01T11:44:55;96490.22;;;1.90;83.96
4598;BME280;62772;48.646;8.906;2023-03-01T12:16:53;96453.47;;;2.43;80.05
4598;BME280;62772;48.646;8.906;2023-03-01T12:33:06;96415.88;;;2.58;77.09
4598;BME280;62772;48.646;8.906;2023-03-01T12:38:42;96416.13;;;2.62;76.77
4598;BME280;62772;48.646;8.906;2023-03-01T12:49:13;96390.38;;;2.79;74.92
4598;BME280;62772;48.646;8.906;2023-03-01T12:54:35;96384.66;;;2.98;75.72
4598;BME280;62772;48.646;8.906;2023-03-01T12:59:45;96383.06;;;3.07;73.40
4598;BME280;62772;48.646;8.906;2023-03-01T13:20:27;96359.91;;;3.40;74.45
4598;BME280;62772;48.646;8.906;2023-03-01T13:25:30;96354.94;;;3.69;71.31
4598;BME280;62772;48.646;8.906;2023-03-01T13:35:41;96354.13;;;3.69;69.30
4598;BME280;62772;48.646;8.906;2023-03-01T13:40:57;96353.09;;;3.90;68.75
4598;BME280;62772;48.646;8.906;2023-03-01T13:45:59;96340.63;;;3.96;67.21
4598;BME280;62772;48.646;8.906;2023-03-01T13:51:05;96342.50;;;3.95;69.65
4598;BME280;62772;48.646;8.906;2023-03-01T13:56:24;96350.16;;;4.02;68.80
4598;BME280;62772;48.646;8.906;2023-03-01T14:01:29;96352.78;;;4.12;69.32
4598;BME280;62772;48.646;8.906;2023-03-01T14:06:32;96345.09;;;4.31;67.42
4598;BME280;62772;48.646;8.906;2023-03-01T14:11:50;96335.56;;;4.30;70.25
4598;BME280;62772;48.646;8.906;2023-03-01T14:27:28;96330.28;;;4.25;68.67
4598;BME280;62772;48.646;8.906;2023-03-01T14:32:31;96345.88;;;4.32;68.78
4598;BME280;62772;48.646;8.906;2023-03-01T14:37:34;96354.88;;;4.21;69.69
4598;BME280;62772;48.646;8.906;2023-03-01T14:42:36;96355.94;;;4.20;69.70
4598;BME280;62772;48.646;8.906;2023-03-01T14:47:37;96357.00;;;4.24;71.03
4598;BME280;62772;48.646;8.906;2023-03-01T14:52:42;96369.69;;;4.16;71.58
4598;BME280;62772;48.646;8.906;2023-03-01T14:57:48;96370.22;;;4.08;69.88
4598;BME280;62772;48.646;8.906;2023-03-01T15:02:50;96360.69;;;4.23;70.41
4598;BME280;62772;48.646;8.906;2023-03-01T15:07:52;96369.66;;;4.37;69.13
4598;BME280;62772;48.646;8.906;2023-03-01T15:12:53;96362.81;;;4.21;67.47
4598;BME280;62772;48.646;8.906;2023-03-01T15:17:55;96357.53;;;4.10;68.14
4598;BME280;62772;48.646;8.906;2023-03-01T15:22:57;96364.94;;;4.24;70.51
4598;BME280;62772;48.646;8.906;2023-03-01T15:27:59;96367.84;;;4.22;69.89
4598;BME280;62772;48.646;8.906;2023-03-01T15:38:34;96372.59;;;4.15;71.08
4598;BME280;62772;48.646;8.906;2023-03-01T15:43:43;96366.53;;;4.14;70.96
4598;BME280;62772;48.646;8.906;2023-03-01T15:48:46;96342.97;;;4.18;71.40
4598;BME280;62772;48.646;8.906;2023-03-01T15:53:51;96335.34;;;4.11;72.58
4598;BME280;62772;48.646;8.906;2023-03-01T15:58:52;96336.66;;;4.04;74.46
4598;BME280;62772;48.646;8.906;2023-03-01T16:03:53;96333.81;;;3.90;72.45
4598;BME280;62772;48.646;8.906;2023-03-01T16:08:54;96331.94;;;3.75;73.98
4598;BME280;62772;48.646;8.906;2023-03-01T16:13:54;96341.19;;;3.67;73.69
4598;BME280;62772;48.646;8.906;2023-03-01T16:18:55;96341.72;;;3.64;72.82
4598;BME280;62772;48.646;8.906;2023-03-01T16:23:56;96346.75;;;3.60;72.92
4598;BME280;62772;48.646;8.906;2023-03-01T16:28:57;96344.63;;;3.47;73.97
4598;BME280;62772;48.646;8.906;2023-03-01T16:33:58;96349.88;;;3.42;74.27
4598;BME280;62772;48.646;8.906;2023-03-01T16:39:00;96351.75;;;3.36;74.85
4598;BME280;62772;48.646;8.906;2023-03-01T16:44:00;96351.75;;;3.31;75.26
4598;BME280;62772;48.646;8.906;2023-03-01T16:49:01;96346.16;;;3.27;75.78
4598;BME280;62772;48.646;8.906;2023-03-01T16:54:03;96362.25;;;3.21;76.41
4598;BME280;62772;48.646;8.906;2023-03-01T16:59:05;96361.44;;;3.00;77.12
4598;BME280;62772;48.646;8.906;2023-03-01T17:04:06;96372.00;;;3.05;77.12
4598;BME280;62772;48.646;8.906;2023-03-01T17:09:06;96377.50;;;2.93;77.64
4598;BME280;62772;48.646;8.906;2023-03-01T17:14:07;96378.56;;;2.97;77.23
4598;BME280;62772;48.646;8.906;2023-03-01T17:19:07;96390.16;;;2.91;78.00
4598;BME280;62772;48.646;8.906;2023-03-01T17:24:08;96383.66;;;2.51;80.68
4598;BME280;62772;48.646;8.906;2023-03-01T17:29:08;96398.88;;;2.39;81.63
4598;BME280;62772;48.646;8.906;2023-03-01T17:34:09;96407.00;;;2.32;83.01
4598;BME280;62772;48.646;8.906;2023-03-01T17:39:10;96398.69;;;2.50;81.40
4598;BME280;62772;48.646;8.906;2023-03-01T17:44:10;96413.91;;;2.38;82.60
4598;BME280;62772;48.646;8.906;2023-03-01T17:49:11;96417.78;;;2.30;83.79
4598;BME280;62772;48.646;8.906;2023-03-01T17:54:11;96425.91;;;2.18;84.69
4598;BME280;62772;48.646;8.906;2023-03-01T17:59:12;96426.47;;;2.26;83.21
4598;BME280;62772;48.646;8.906;2023-03-01T18:04:13;96421.66;;;2.17;84.01
4598;BME280;62772;48.646;8.906;2023-03-01T18:09:13;96421.56;;;2.02;85.86
4598;BME280;62772;48.646;8.906;2023-03-01T18:14:14;96423.09;;;1.98;85.61
4598;BME280;62772;48.646;8.906;2023-03-01T18:19:14;96415.72;;;1.95;86.39
4598;BME280;62772;48.646;8.906;2023-03-01T18:24:15;96418.84;;;1.92;86.79
4598;BME280;62772;48.646;8.906;2023-03-01T18:29:16;96417.59;;;1.67;89.30
4598;BME280;62772;48.646;8.906;2023-03-01T18:34:16;96413.41;;;1.71;88.70
4598;BME280;62772;48.646;8.906;2023-03-01T18:39:17;96412.31;;;1.40;90.63
4598;BME280;62772;48.646;8.906;2023-03-01T18:44:18;96412.19;;;1.52;89.89
4598;BME280;62772;48.646;8.906;2023-03-01T18:49:19;96415.53;;;1.42;89.21
4598;BME280;62772;48.646;8.906;2023-03-01T18:54:19;96401.25;;;1.11;91.62
4598;BME280;62772;48.646;8.906;2023-03-01T18:59:20;96401.53;;;1.41;89.87
4598;BME280;62772;48.646;8.906;2023-03-01T19:04:20;96394.91;;;1.61;88.46
4598;BME280;62772;48.646;8.906;2023-03-01T19:09:21;96390.78;;;1.43;90.48
4598;BME280;62772;48.646;8.906;2023-03-01T19:14:21;96395.28;;;1.48;90.06
4598;BME280;62772;48.646;8.906;2023-03-01T19:19:22;96396.31;;;1.19;92.25
4598;BME280;62772;48.646;8.906;2023-03-01T19:24:22;96390.56;;;1.22;92.74
4598;BME280;62772;48.646;8.906;2023-03-01T19:29:23;96379.97;;;1.12;93.84
4598;BME280;62772;48.646;8.906;2023-03-01T19:34:23;96377.00;;;1.31;91.00
4598;BME280;62772;48.646;8.906;2023-03-01T19:39:24;96383.50;;;1.23;91.13
4598;BME280;62772;48.646;8.906;2023-03-01T19:44:26;96388.00;;;1.27;90.95
4598;BME280;62772;48.646;8.906;2023-03-01T19:49:27;96380.44;;;1.09;93.59
4598;BME280;62772;48.646;8.906;2023-03-01T19:54:28;96380.69;;;1.07;93.51
4598;BME280;62772;48.646;8.906;2023-03-01T19:59:29;96374.53;;;0.97;93.60
4598;BME280;62772;48.646;8.906;2023-03-01T20:04:29;96379.44;;;0.88;95.54
4598;BME280;62772;48.646;8.906;2023-03-01T20:09:30;96374.22;;;0.93;95.53
4598;BME280;62772;48.646;8.906;2023-03-01T20:14:30;96385.66;;;1.04;94.37
4598;BME280;62772;48.646;8.906;2023-03-01T20:19:31;96382.59;;;1.12;93.41
4598;BME280;62772;48.646;8.906;2023-03-01T20:24:31;96380.72;;;0.85;95.85
4598;BME280;62772;48.646;8.906;2023-03-01T20:29:32;96376.44;;;0.79;97.20
4598;BME280;62772;48.646;8.906;2023-03-01T20:34:32;96371.78;;;0.86;97.35
4598;BME280;62772;48.646;8.906;2023-03-01T20:39:35;96374.63;;;0.80;98.25
4598;BME280;62772;48.646;8.906;2023-03-01T20:44:35;96376.44;;;0.79;98.68
4598;BME280;62772;48.646;8.906;2023-03-01T20:49:42;96367.56;;;0.85;99.51
4598;BME280;62772;48.646;8.906;2023-03-01T20:54:42;96356.94;;;0.75;100.00
4598;BME280;62772;48.646;8.906;2023-03-01T20:59:43;96357.06;;;0.63;100.00
4598;BME280;62772;48.646;8.906;2023-03-01T21:04:44;96361.81;;;0.88;98.66
4598;BME280;62772;48.646;8.906;2023-03-01T21:09:44;96364.47;;;0.66;100.00
4598;BME280;62772;48.646;8.906;2023-03-01T21:14:44;96354.66;;;0.84;99.30
4598;BME280;62772;48.646;8.906;2023-03-01T21:19:46;96353.00;;;0.78;99.68
4598;BME280;62772;48.646;8.906;2023-03-01T21:24:47;96367.81;;;0.84;99.34
4598;BME280;62772;48.646;8.906;2023-03-01T21:29:48;96362.22;;;0.75;99.58
4598;BME280;62772;48.646;8.906;2023-03-01T21:34:48;96355.84;;;0.49;100.00
4598;BME280;62772;48.646;8.906;2023-03-01T21:39:49;96356.00;;;0.03;100.00
4598;BME280;62772;48.646;8.906;2023-03-01T21:44:49;96350.97;;;0.18;100.00
4598;BME280;62772;48.646;8.906;2023-03-01T21:49:50;96346.41;;;0.31;100.00
4598;BME280;62772;48.646;8.906;2023-03-01T21:54:50;96340.38;;;0.30;100.00
4598;BME280;62772;48.646;8.906;2023-03-01T21:59:51;96332.03;;;0.33;100.00
4598;BME280;62772;48.646;8.906;2023-03-01T22:04:52;96322.53;;;0.32;100.00
4598;BME280;62772;48.646;8.906;2023-03-01T22:09:56;96328.03;;;0.31;100.00
4598;BME280;62772;48.646;8.906;2023-03-01T22:14:57;96321.97;;;0.08;100.00
4598;BME280;62772;48.646;8.906;2023-03-01T22:19:57;96319.41;;;0.13;100.00
4598;BME280;62772;48.646;8.906;2023-03-01T22:24:58;96318.63;;;0.13;100.00
4598;BME280;62772;48.646;8.906;2023-03-01T22:29:58;96322.97;;;0.24;100.00
4598;BME280;62772;48.646;8.906;2023-03-01T22:34:59;96316.59;;;0.20;100.00
4598;BME280;62772;48.646;8.906;2023-03-01T22:39:59;96321.84;;;0.20;100.00
4598;BME280;62772;48.646;8.906;2023-03-01T22:44:59;96320.81;;;0.21;100.00
4598;BME280;62772;48.646;8.906;2023-03-01T22:50:00;96326.84;;;0.22;100.00
4598;BME280;62772;48.646;8.906;2023-03-01T22:55:00;96319.66;;;0.12;100.00
4598;BME280;62772;48.646;8.906;2023-03-01T23:00:05;96309.69;;;0.14;100.00
4598;BME280;62772;48.646;8.906;2023-03-01T23:05:08;96312.78;;;-0.28;100.00
4598;BME280;62772;48.646;8.906;2023-03-01T23:10:09;96310.00;;;-0.39;100.00
4598;BME280;62772;48.646;8.906;2023-03-01T23:15:11;96302.88;;;-0.04;100.00
4598;BME280;62772;48.646;8.906;2023-03-01T23:20:12;96303.47;;;-0.19;100.00
4598;BME280;62772;48.646;8.906;2023-03-01T23:25:13;96315.72;;;-0.25;100.00
4598;BME280;62772;48.646;8.906;2023-03-01T23:30:14;96302.66;;;-0.20;100.00
4598;BME280;62772;48.646;8.906;2023-03-01T23:35:15;96292.66;;;-0.23;100.00
4598;BME280;62772;48.646;8.906;2023-03-01T23:40:15;96293.88;;;-0.64;100.00
4598;BME280;62772;48.646;8.906;2023-03-01T23:45:16;96291.56;;;-0.78;100.00
4598;BME280;62772;48.646;8.906;2023-03-01T23:50:16;96294.50;;;-0.91;100.00
4598;BME280;62772;48.646;8.906;2023-03-01T23:55:18;96287.16;;;-1.06;100.00
